Terminal Aerodrome Forecast
Issued by NWS Omaha/Valley, NE

Home | Current Version | Previous Version | Text Only | Print | Product List | Glossary Off
Versions: 1 2 3 4 5 6 7 8 9 10 11 12 13 14 15 16 17 18 19 20 21 22 23

000
FTUS43 KOAX 282001 AAA
TAFOFK
TAF AMD
KOFK 282001Z 2820/2918 08010KT P6SM BKN030
      TEMPO 2820/2823 SCT030 BKN200
     FM282300 09008KT P6SM VCSH OVC025
     FM290300 09006KT P6SM -RA OVC025
     FM290600 07006KT 3SM -RA BR OVC010
     FM291500 06010KT 2SM -RA BR OVC008=

USA.gov is the U.S. government's official web portal to all federal, state and local government web resources and services.